createdAt,value
2023-04-08T00:00:51.586Z,99792.73
2023-04-08T00:04:49.650Z,99789.19
2023-04-08T00:08:47.610Z,99791.17
2023-04-08T00:12:45.538Z,99796.16
2023-04-08T00:16:43.879Z,99796.48
2023-04-08T00:20:41.503Z,99797.91
2023-04-08T00:24:39.577Z,99799.37
2023-04-08T00:28:37.477Z,99800.98
2023-04-08T00:32:35.483Z,99807.46
2023-04-08T00:36:34.478Z,99813.71
2023-04-08T00:40:32.501Z,99812.23
2023-04-08T00:44:30.486Z,99809.95
2023-04-08T00:48:28.424Z,99809.48
2023-04-08T00:52:26.550Z,99805.79
2023-04-08T00:56:24.481Z,99806.02
2023-04-08T01:00:23.495Z,99806.32
2023-04-08T01:04:27.578Z,99812.29
2023-04-08T01:08:26.555Z,99817.92
2023-04-08T01:12:33.403Z,99823.80
2023-04-08T01:16:32.423Z,99823.39
2023-04-08T01:20:31.383Z,99826.21
2023-04-08T01:24:42.441Z,99827.66
2023-04-08T01:28:44.409Z,99834.31
2023-04-08T01:32:43.409Z,99836.10
2023-04-08T01:36:43.397Z,99833.61
2023-04-08T01:40:41.400Z,99833.66
2023-04-08T01:44:41.379Z,99831.31
2023-04-08T01:48:39.417Z,99833.48
2023-04-08T01:52:38.421Z,99834.49
2023-04-08T01:56:38.379Z,99837.79
2023-04-08T02:00:42.362Z,99835.73
2023-04-08T02:04:40.588Z,99837.19
2023-04-08T02:08:40.335Z,99835.39
2023-04-08T02:12:38.364Z,99833.42
2023-04-08T02:16:54.320Z,99837.15
2023-04-08T02:20:56.427Z,99840.14
2023-04-08T02:24:55.323Z,99845.13
2023-04-08T02:28:55.352Z,99845.43
2023-04-08T02:32:53.481Z,99848.73
2023-04-08T02:36:52.342Z,99843.76
2023-04-08T02:40:50.348Z,99843.16
2023-04-08T02:44:48.339Z,99841.94
2023-04-08T02:48:47.371Z,99843.27
2023-04-08T02:52:45.325Z,99842.96
2023-04-08T02:56:43.352Z,99842.73
2023-04-08T03:00:41.323Z,99847.91
2023-04-08T03:04:39.281Z,99845.45
2023-04-08T03:08:37.331Z,99841.94
2023-04-08T03:12:35.254Z,99844.21
2023-04-08T03:16:33.284Z,99842.62
2023-04-08T03:20:31.237Z,99849.39
2023-04-08T03:24:29.237Z,99850.48
2023-04-08T03:28:27.282Z,99847.71
2023-04-08T03:32:25.332Z,99848.49
2023-04-08T03:36:23.206Z,99843.27
2023-04-08T03:40:22.239Z,99848.45
2023-04-08T03:44:20.246Z,99851.45
2023-04-08T03:48:18.224Z,99859.95
2023-04-08T03:52:16.186Z,99866.97
2023-04-08T03:56:14.256Z,99877.22
2023-04-08T04:00:13.197Z,99886.12
2023-04-08T04:04:12.331Z,99887.80
2023-04-08T04:08:10.173Z,99887.77
2023-04-08T04:12:08.230Z,99888.88
2023-04-08T04:16:06.194Z,99891.86
2023-04-08T04:20:06.165Z,99894.95
2023-04-08T04:24:04.174Z,99894.95
2023-04-08T04:28:02.153Z,99904.23
2023-04-08T04:32:00.135Z,99911.44
2023-04-08T04:35:58.186Z,99914.86
2023-04-08T04:39:56.235Z,99916.66
2023-04-08T04:43:54.157Z,99920.70
2023-04-08T04:47:52.164Z,99926.06
2023-04-08T04:51:50.162Z,99930.18
2023-04-08T04:55:48.134Z,99931.70
2023-04-08T04:59:46.213Z,99935.50
2023-04-08T05:03:44.434Z,99945.48
2023-04-08T05:07:42.103Z,99947.84
2023-04-08T05:11:42.681Z,99947.30
2023-04-08T05:15:41.129Z,99948.20
2023-04-08T05:19:39.094Z,99955.38
2023-04-08T05:23:37.089Z,99958.30
2023-04-08T05:27:43.049Z,99964.25
2023-04-08T05:31:41.294Z,99974.73
2023-04-08T05:35:39.147Z,99976.10
2023-04-08T05:39:37.142Z,99979.15
2023-04-08T05:43:35.154Z,99980.17
2023-04-08T05:47:33.098Z,99981.10
2023-04-08T05:51:31.035Z,99983.17
2023-04-08T05:55:29.051Z,99986.26
2023-04-08T05:59:26.984Z,99981.82
2023-04-08T06:03:25.222Z,99986.52
2023-04-08T06:07:23.031Z,99985.61
2023-04-08T06:11:21.101Z,99991.34
2023-04-08T06:15:19.082Z,99993.59
2023-04-08T06:19:17.156Z,99993.17
2023-04-08T06:23:14.989Z,99992.92
2023-04-08T06:27:13.043Z,99989.83
2023-04-08T06:31:10.977Z,99991.78
2023-04-08T06:35:09.071Z,99994.80
2023-04-08T06:39:07.054Z,99995.44
2023-04-08T06:43:06.055Z,99997.46
2023-04-08T06:47:05.957Z,99990.65
2023-04-08T06:51:03.954Z,99991.63
2023-04-08T06:55:02.957Z,99992.52
2023-04-08T06:59:00.960Z,99996.51
2023-04-08T07:02:59.002Z,99999.30
2023-04-08T07:06:57.000Z,100002.38
2023-04-08T07:10:54.984Z,100003.25
2023-04-08T07:14:53.060Z,100007.30
2023-04-08T07:18:51.067Z,100010.48
2023-04-08T07:22:49.121Z,100009.35
2023-04-08T07:26:47.012Z,100005.63
2023-04-08T07:30:44.919Z,100006.84
2023-04-08T07:34:42.958Z,100007.75
2023-04-08T07:38:41.037Z,100002.80
2023-04-08T07:42:40.730Z,100005.80
2023-04-08T07:46:39.106Z,100005.21
2023-04-08T07:50:36.919Z,100013.20
2023-04-08T07:54:54.965Z,100012.73
2023-04-08T07:58:53.941Z,100007.40
2023-04-08T08:02:51.919Z,100004.44
2023-04-08T08:06:49.939Z,100004.63
2023-04-08T08:10:47.914Z,100000.17
2023-04-08T08:14:45.890Z,100005.08
2023-04-08T08:18:43.982Z,100005.70
2023-04-08T08:22:50.925Z,100004.34
2023-04-08T08:26:56.010Z,100004.38
2023-04-08T08:30:53.906Z,100001.22
2023-04-08T08:34:51.862Z,100004.67
2023-04-08T08:38:49.855Z,100002.03
2023-04-08T08:42:48.027Z,99999.98
2023-04-08T08:46:45.870Z,100004.19
2023-04-08T08:50:43.839Z,100005.75
2023-04-08T08:54:41.804Z,100009.00
2023-04-08T08:58:42.907Z,100003.88
2023-04-08T09:02:45.935Z,100004.18
2023-04-08T09:06:43.812Z,100005.92
2023-04-08T09:10:43.813Z,100002.80
2023-04-08T09:14:41.890Z,100000.56
2023-04-08T09:18:39.873Z,100003.21
2023-04-08T09:22:38.752Z,100004.73
2023-04-08T09:26:37.790Z,100015.98
2023-04-08T09:30:39.845Z,100014.25
2023-04-08T09:34:38.730Z,100015.81
2023-04-08T09:38:37.758Z,100011.99
2023-04-08T09:42:35.774Z,100011.52
2023-04-08T09:46:46.749Z,100013.52
2023-04-08T09:50:48.786Z,100011.85
2023-04-08T09:55:13.759Z,100012.55
2023-04-08T09:59:17.721Z,100008.17
2023-04-08T10:03:38.036Z,100005.03
2023-04-08T10:07:35.746Z,100011.66
2023-04-08T10:11:33.794Z,100003.41
2023-04-08T10:15:47.726Z,100004.27
2023-04-08T10:19:53.741Z,100010.21
2023-04-08T10:24:12.708Z,100003.77
2023-04-08T10:28:10.773Z,99997.64
2023-04-08T10:32:09.850Z,99994.33
2023-04-08T10:36:22.723Z,99993.31
2023-04-08T10:40:20.682Z,99982.81
2023-04-08T10:44:18.735Z,99986.56
2023-04-08T10:48:35.655Z,99986.66
2023-04-08T10:52:34.703Z,99980.64
2023-04-08T10:56:32.735Z,99973.04
2023-04-08T11:00:46.689Z,99971.62
2023-04-08T11:04:44.824Z,99975.88
2023-04-08T11:08:43.728Z,99969.24
2023-04-08T11:12:41.658Z,99961.11
2023-04-08T11:16:41.738Z,99965.14
2023-04-08T11:20:41.724Z,99959.42
2023-04-08T11:24:39.659Z,99961.17
2023-04-08T11:28:37.655Z,99959.55
2023-04-08T11:32:35.729Z,99962.05
2023-04-08T11:36:34.620Z,99957.75
2023-04-08T11:40:35.659Z,99959.23
2023-04-08T11:44:33.690Z,99955.33
2023-04-08T11:48:31.601Z,99947.52
2023-04-08T11:52:30.564Z,99951.07
2023-04-08T11:56:32.622Z,99957.27
2023-04-08T12:00:30.624Z,99955.66
2023-04-08T12:04:28.662Z,99955.69
2023-04-08T12:08:26.552Z,99953.98
2023-04-08T12:12:24.674Z,99958.45
2023-04-08T12:16:22.633Z,99957.15
2023-04-08T12:20:22.591Z,99955.27
2023-04-08T12:24:20.630Z,99947.52
2023-04-08T12:28:18.617Z,99940.21
2023-04-08T12:32:16.589Z,99938.59
2023-04-08T12:36:14.728Z,99935.23
2023-04-08T12:40:12.655Z,99929.77
2023-04-08T12:44:11.654Z,99921.41
2023-04-08T12:48:09.716Z,99921.94
2023-04-08T12:52:07.724Z,99924.02
2023-04-08T12:56:05.749Z,99927.34
2023-04-08T13:00:04.594Z,99924.96
2023-04-08T13:04:02.643Z,99929.22
2023-04-08T13:08:00.697Z,99932.85
2023-04-08T13:11:58.762Z,99932.03
2023-04-08T13:15:56.631Z,99925.26
2023-04-08T13:19:56.552Z,99921.34
2023-04-08T13:23:54.601Z,99924.61
2023-04-08T13:27:52.507Z,99922.81
2023-04-08T13:31:50.649Z,99919.48
2023-04-08T13:35:50.547Z,99919.00
2023-04-08T13:39:48.582Z,99918.05
2023-04-08T13:43:46.566Z,99914.36
2023-04-08T13:47:44.730Z,99920.46
2023-04-08T13:51:42.516Z,99916.77
2023-04-08T13:55:41.519Z,99920.48
2023-04-08T13:59:39.527Z,99917.17
2023-04-08T14:03:38.500Z,99917.75
2023-04-08T14:07:36.430Z,99917.52
2023-04-08T14:11:35.456Z,99912.06
2023-04-08T14:15:34.471Z,99915.44
2023-04-08T14:19:32.667Z,99911.20
2023-04-08T14:23:30.445Z,99906.75
2023-04-08T14:27:28.444Z,99907.14
2023-04-08T14:31:26.548Z,99902.27
2023-04-08T14:35:24.482Z,99900.50
2023-04-08T14:39:22.424Z,99902.33
2023-04-08T14:43:20.416Z,99904.95
2023-04-08T14:47:18.438Z,99903.70
2023-04-08T14:51:16.596Z,99906.06
2023-04-08T14:55:14.503Z,99907.77
2023-04-08T14:59:12.381Z,99910.59
2023-04-08T15:03:10.586Z,99911.89
2023-04-08T15:07:20.395Z,99916.04
2023-04-08T15:11:18.480Z,99917.93
2023-04-08T15:15:16.465Z,99915.65
2023-04-08T15:19:14.394Z,99918.27
2023-04-08T15:23:12.368Z,99918.56
2023-04-08T15:27:10.488Z,99918.51
2023-04-08T15:31:08.411Z,99914.33
2023-04-08T15:35:06.354Z,99912.69
2023-04-08T15:39:05.450Z,99918.80
2023-04-08T15:43:05.675Z,99923.08
2023-04-08T15:47:03.465Z,99921.45
2023-04-08T15:51:01.342Z,99920.79
2023-04-08T15:54:59.417Z,99924.52
2023-04-08T15:58:59.349Z,99923.27
2023-04-08T16:02:57.494Z,99926.05
2023-04-08T16:06:55.277Z,99931.16
2023-04-08T16:10:53.407Z,99931.09
2023-04-08T16:14:51.362Z,99928.20
2023-04-08T16:18:50.469Z,99920.66
2023-04-08T16:22:49.366Z,99920.34
2023-04-08T16:26:47.303Z,99921.70
2023-04-08T16:30:51.262Z,99921.77
2023-04-08T16:34:49.357Z,99925.01
2023-04-08T16:38:47.227Z,99924.76
2023-04-08T16:42:45.274Z,99930.59
2023-04-08T16:46:43.290Z,99929.64
2023-04-08T16:50:41.362Z,99928.31
2023-04-08T16:54:39.252Z,99926.11
2023-04-08T16:58:37.419Z,99933.30
2023-04-08T17:02:35.418Z,99937.83
2023-04-08T17:06:34.305Z,99942.48
2023-04-08T17:10:34.232Z,99941.91
2023-04-08T17:14:34.263Z,99947.70
2023-04-08T17:18:32.229Z,99949.70
2023-04-08T17:22:30.249Z,99947.89
2023-04-08T17:26:29.217Z,99952.69
2023-04-08T17:30:28.238Z,99960.51
2023-04-08T17:34:27.194Z,99961.45
2023-04-08T17:38:25.207Z,99967.86
2023-04-08T17:42:23.218Z,99968.63
2023-04-08T17:46:21.337Z,99970.47
2023-04-08T17:50:19.233Z,99971.27
2023-04-08T17:54:19.183Z,99970.55
2023-04-08T17:58:17.244Z,99969.84
2023-04-08T18:02:15.386Z,99969.17
2023-04-08T18:06:13.201Z,99965.05
2023-04-08T18:10:13.231Z,99965.39
2023-04-08T18:14:11.202Z,99968.58
2023-04-08T18:18:09.188Z,99972.34
2023-04-08T18:22:07.165Z,99967.29
2023-04-08T18:26:05.249Z,99970.65
2023-04-08T18:30:03.180Z,99968.86
2023-04-08T18:34:01.197Z,99976.20
2023-04-08T18:37:59.186Z,99981.05
2023-04-08T18:41:57.136Z,99983.91
2023-04-08T18:45:55.125Z,99984.52
2023-04-08T18:49:53.160Z,99985.77
2023-04-08T18:53:51.462Z,99989.35
2023-04-08T18:57:49.173Z,99982.23
2023-04-08T19:01:47.272Z,99986.36
2023-04-08T19:05:45.152Z,99985.61
2023-04-08T19:09:43.109Z,99988.08
2023-04-08T19:13:41.060Z,99984.13
2023-04-08T19:17:39.182Z,99984.90
2023-04-08T19:21:37.148Z,99984.92
2023-04-08T19:25:35.054Z,99985.79
2023-04-08T19:29:39.169Z,99981.70
2023-04-08T19:33:37.020Z,99984.98
2023-04-08T19:37:35.078Z,99981.77
2023-04-08T19:41:34.067Z,99983.49
2023-04-08T19:45:32.093Z,99987.88
2023-04-08T19:49:30.019Z,99990.99
2023-04-08T19:53:28.155Z,99992.94
2023-04-08T19:57:26.050Z,99995.23
2023-04-08T20:01:26.077Z,99991.55
2023-04-08T20:05:23.988Z,99990.55
2023-04-08T20:09:23.028Z,99988.36
2023-04-08T20:13:22.033Z,99986.70
2023-04-08T20:17:22.206Z,99983.45
2023-04-08T20:21:21.066Z,99980.70
2023-04-08T20:25:18.966Z,99981.83
2023-04-08T20:29:17.039Z,99982.46
2023-04-08T20:33:14.950Z,99979.79
2023-04-08T20:37:13.965Z,99983.17
2023-04-08T20:41:11.996Z,99989.23
2023-04-08T20:45:10.068Z,99986.23
2023-04-08T20:49:07.955Z,99986.98
2023-04-08T20:53:05.936Z,99990.55
2023-04-08T20:57:04.020Z,99992.11
2023-04-08T21:01:05.373Z,99999.58
2023-04-08T21:05:03.964Z,99996.23
2023-04-08T21:09:02.902Z,100000.61
2023-04-08T21:13:02.067Z,99993.77
2023-04-08T21:16:59.917Z,99991.86
2023-04-08T21:20:58.020Z,99989.23
2023-04-08T21:24:55.907Z,99988.52
2023-04-08T21:28:53.972Z,99991.60
2023-04-08T21:32:51.995Z,99993.20
2023-04-08T21:36:53.114Z,99996.40
2023-04-08T21:40:50.887Z,99997.39
2023-04-08T21:44:48.878Z,99995.07
2023-04-08T21:48:46.939Z,99994.52
2023-04-08T21:52:45.940Z,99990.36
2023-04-08T21:56:43.862Z,99989.09
2023-04-08T22:00:41.953Z,99989.19
2023-04-08T22:04:39.869Z,99986.73
2023-04-08T22:08:38.889Z,99983.66
2023-04-08T22:12:37.892Z,99980.98
2023-04-08T22:16:35.878Z,99972.58
2023-04-08T22:20:34.829Z,99973.14
2023-04-08T22:24:35.863Z,99969.11
2023-04-08T22:28:33.783Z,99970.13
2023-04-08T22:32:31.921Z,99969.98
2023-04-08T22:36:29.809Z,99970.36
2023-04-08T22:40:28.792Z,99973.89
2023-04-08T22:44:26.848Z,99972.60
2023-04-08T22:48:24.916Z,99974.08
2023-04-08T22:52:22.792Z,99972.56
2023-04-08T22:56:20.805Z,99974.29
2023-04-08T23:00:18.806Z,99969.98
2023-04-08T23:04:16.977Z,99972.97
2023-04-08T23:08:14.768Z,99970.75
2023-04-08T23:12:12.789Z,99970.09
2023-04-08T23:16:10.878Z,99968.11
2023-04-08T23:20:08.919Z,99970.77
2023-04-08T23:24:06.840Z,99968.60
2023-04-08T23:28:04.773Z,99970.71
2023-04-08T23:32:02.826Z,99973.22
2023-04-08T23:36:01.961Z,99969.16
2023-04-08T23:39:59.708Z,99969.95
2023-04-08T23:43:59.736Z,99972.73
2023-04-08T23:47:57.783Z,99974.31
2023-04-08T23:51:56.789Z,99976.05
2023-04-08T23:55:59.099Z,99975.05
2023-04-08T23:59:56.733Z,99973.52
